Terminal Aerodrome Forecast
Issued by NWS

Home | Current Version | Previous Version | Text Only | Print | Product List | Glossary On
Versions: 1 2 3 4 5 6 7 8 9 10 11 12
368
FTUS45 KPIH 240520
TAFSUN
TAF
KSUN 240520Z 2406/2506 32008KT P6SM VCSH SCT030 OVC120
     FM241300 VRB06KT 6SM -SHRA BR BKN020 OVC030
     FM241800 14007KT P6SM -SHRA SCT020 OVC040
     FM242100 22010G18KT P6SM -SHRA OVC040
     FM250300 29010G20KT P6SM OVC080
      AMD LTD TO CLD VIS AND WIND TIL 241300=

USA.gov is the U.S. government's official web portal to all federal, state and local government web resources and services.